Thompson Airport
CYTH : rendu visible

Aérodrome :











RETROUVEZ-NOUS SUR...

 
LOGIN :

S'inscrire | Disclaimer

   EN    FR    IT 

 









Légende :    VFR   VFR Marginal   IFR   IFR Intensif   IFR Très Intensif
Visi : 
Plafond : 
>= 8 km
>= 3000ft
5 à 8 km
1000 à 3000 ft
1500m à 5 km
500 à 1000 ft
800 à 1500m
200 à 500 ft
< 800m
< 200 ft
Symboles :   Orages  Brouillard  Fortes neiges  Fortes précipitations  Vent > 20 kt






- Altitude de l'aérodrome : 729 ft
- Code IATA : YTH


CYTH - Thompson

DERNIER METAR :
  • 211619Z 21003KT 15SM IC FEW038 FEW100 FEW210 M17/M18 A3005 RMK SC1AC1CI1 SC TR SLP201

METARs EXPIRÉS :
  • 211600Z 18003KT 15SM FEW038 FEW080 SCT210 M17/M19 A3005 RMK SC1AC1CI2 SLP201
  • 211521Z 00000KT 15SM FEW040 FEW080 FEW210 M19/M21 A3007 RMK SC1AC1CI1 CI TR SLP208
  • 211500Z 00000KT 15SM -SN FEW040 SCT080 SCT210 M19/M21 A3007 RMK SC2AC1CI1 CI TR SLP208
  • 211400Z 00000KT 15SM -SN BKN040 M18/M20 A3008 RMK SC7 SLP212

TAF TAF CYTH
Valide du 21 à 13h jusqu'au 22 à 01h UTC


211238Z 2113/2201 VRB03KT P6SM FEW008 BKN040
TEMPO 2113/2116 P6SM -SN BKN008 BKN020
FM211600 22006KT P6SM FEW008 SCT100
TEMPO 2116/2122 5SM -SN SCT008 BKN080
FM212200 20008KT P6SM SCT015 BKN080
TEMPO 2122/2201 3SM -SN BKN015 OVC060 RMK NXT FCST BY 211900Z



MET'MAP, la Météo Aéronautique d'un coup d'oeil ! - Copyright ORBIFLY Décembre 2007 - Disclaimer

ORBIFLY MET'MAP TEAM :

Programmation & Développement : Alexandra Zaïnal
Conception & Développement : Baudouin d'Aumeries
Co-Programmation & Développement : Marc-Olivier Méhu
Soutien technique & logistique : Manuel Goepfert

Contact : metmap@orbifly.com




SOURCES & CREDITS :

   NOAA       Earth
Advisory